Time;durP1;ratioP1;P1;durP2;ratioP2;P2;SDS_P1;SDS_P2;PMS_P1;PMS_P2;Temp;Humidity;BMP_temperature;BMP_pressure;BME280_temperature;BME280_humidity;BME280_pressure;Samples;Min_cycle;Max_cycle;Signal;HPM_P1;HPM_P2
2023/08/16 00:01:54;;;;;;;10.40;4.38;;;;;;;;;;5042640;28;20030;-44
2023/08/16 00:04:23;;;;;;;14.38;5.43;;;;;;;;;;5046113;28;20060;-48
2023/08/16 00:06:50;;;;;;;11.93;4.60;;;30.10;99.90;;;;;;5045428;28;20041;-49
2023/08/16 00:09:17;;;;;;;9.77;4.90;;;30.30;99.90;;;;;;5037932;28;20097;-46
2023/08/16 00:11:44;;;;;;;11.02;5.50;;;30.40;99.90;;;;;;5025465;28;20030;-51
2023/08/16 00:14:10;;;;;;;8.45;5.78;;;30.50;99.90;;;;;;5029369;28;20025;-42
2023/08/16 00:16:37;;;;;;;10.55;5.03;;;30.50;99.90;;;;;;5044451;28;20317;-48
2023/08/16 00:19:04;;;;;;;12.55;4.68;;;30.50;99.90;;;;;;5045215;28;20041;-46
2023/08/16 00:21:31;;;;;;;16.27;5.38;;;30.50;99.90;;;;;;5045712;28;20237;-53
2023/08/16 00:23:57;;;;;;;19.95;6.88;;;30.50;99.90;;;;;;5044257;28;20026;-45
2023/08/16 00:26:24;;;;;;;16.60;6.68;;;30.40;99.90;;;;;;5044524;28;20037;-54
2023/08/16 00:28:51;;;;;;;13.30;5.80;;;30.50;99.90;;;;;;5043944;28;20017;-51
2023/08/16 00:31:19;;;;;;;11.07;5.20;;;30.50;99.90;;;;;;5044336;28;20033;-44
2023/08/16 00:33:46;;;;;;;11.63;4.63;;;30.40;99.90;;;;;;5044144;28;20033;-46
2023/08/16 00:36:14;;;;;;;8.95;4.35;;;30.40;99.90;;;;;;5043961;28;20096;-44
2023/08/16 00:38:43;;;;;;;10.38;3.88;;;30.40;99.90;;;;;;5044911;28;20080;-47
2023/08/16 00:41:13;;;;;;;11.77;3.40;;;30.50;99.90;;;;;;5044446;28;20097;-53
2023/08/16 00:43:40;;;;;;;11.88;3.60;;;30.50;99.90;;;;;;5044565;28;20038;-44
2023/08/16 00:46:14;;;;;;;14.57;3.33;;;30.40;99.90;;;;;;5044146;28;20032;-46
2023/08/16 00:48:42;;;;;;;15.75;3.47;;;30.40;99.90;;;;;;5044342;28;20076;-48
2023/08/16 00:51:10;;;;;;;28.40;4.75;;;30.40;99.90;;;;;;5043528;28;20033;-56
2023/08/16 00:53:39;;;;;;;25.10;5.60;;;30.30;99.90;;;;;;5044870;28;20017;-42
2023/08/16 00:56:07;;;;;;;37.22;6.57;;;30.40;99.90;;;;;;5043923;28;20083;-46
2023/08/16 00:58:34;;;;;;;34.55;5.38;;;30.30;99.90;;;;;;5026643;28;20108;-53
2023/08/16 01:01:01;;;;;;;42.15;5.35;;;30.30;99.90;;;;;;5043818;28;20029;-48
2023/08/16 01:03:29;;;;;;;28.17;4.80;;;30.30;99.90;;;;;;5034361;28;20025;-52
2023/08/16 01:05:55;;;;;;;35.05;4.90;;;30.30;99.90;;;;;;5044460;28;20060;-44
2023/08/16 01:08:22;;;;;;;21.88;4.03;;;30.20;99.90;;;;;;5044127;28;20321;-46
2023/08/16 01:11:02;;;;;;;26.05;4.53;;;30.20;99.90;;;;;;5043863;28;20038;-50
2023/08/16 01:13:36;;;;;;;18.88;4.43;;;;;;;;;;5044382;28;20031;-44
2023/08/16 01:16:07;;;;;;;25.20;3.67;;;;;;;;;;5044152;28;20313;-47
2023/08/16 01:18:35;;;;;;;28.58;3.88;;;;;;;;;;5044220;28;20079;-43
2023/08/16 01:21:07;;;;;;;17.88;3.15;;;;;;;;;;5044810;28;20041;-45
2023/08/16 01:23:44;;;;;;;13.10;3.65;;;;;;;;;;5043730;28;20013;-48
2023/08/16 01:26:16;;;;;;;26.25;3.90;;;;;;;;;;5026116;28;20034;-52
2023/08/16 01:28:43;;;;;;;58.58;6.13;;;;;;;;;;5043356;28;20281;-43
2023/08/16 01:31:10;;;;;;;44.00;5.35;;;;;;;;;;5043866;28;20025;-43
2023/08/16 01:33:37;;;;;;;28.30;4.20;;;;;;;;;;5043253;28;20029;-45
2023/08/16 01:36:04;;;;;;;25.70;4.13;;;;;;;;;;5043553;28;20061;-51
2023/08/16 01:38:31;;;;;;;25.17;4.53;;;;;;;;;;5044195;28;20029;-43
2023/08/16 01:41:03;;;;;;;16.27;3.67;;;;;;;;;;5025408;28;20233;-43
2023/08/16 01:43:31;;;;;;;12.85;3.13;;;;;;;;;;5041317;28;20017;-46
2023/08/16 01:45:59;;;;;;;11.90;3.08;;;;;;;;;;5042372;28;20035;-50
2023/08/16 01:48:26;;;;;;;21.55;3.42;;;;;;;;;;5042609;28;20068;-48
2023/08/16 01:50:53;;;;;;;7.47;2.88;;;;;;;;;;5044179;28;20041;-43
2023/08/16 01:53:20;;;;;;;9.30;2.85;;;;;;;;;;5043138;28;20401;-46
2023/08/16 01:55:46;;;;;;;8.55;3.10;;;;;;;;;;5043388;28;20025;-44
2023/08/16 01:58:16;;;;;;;8.98;2.75;;;;;;;;;;5044022;28;20120;-43
2023/08/16 02:00:43;;;;;;;12.25;2.95;;;;;;;;;;5026385;28;20232;-45
2023/08/16 02:03:10;;;;;;;13.35;2.65;;;;;;;;;;5038100;28;20360;-44
2023/08/16 02:05:36;;;;;;;12.38;2.72;;;;;;;;;;5038338;28;20095;-46
2023/08/16 02:08:04;;;;;;;10.90;2.80;;;;;;;;;;5055106;28;20032;-44
2023/08/16 02:10:30;;;;;;;9.68;2.78;;;;;;;;;;5055606;28;20034;-44
2023/08/16 02:12:57;;;;;;;7.15;2.90;;;;;;;;;;5043689;28;20227;-43
2023/08/16 02:15:28;;;;;;;11.43;2.83;;;29.90;99.90;;;;;;5042871;28;20037;-46
2023/08/16 02:17:54;;;;;;;11.73;2.75;;;29.90;99.90;;;;;;5043712;28;20092;-46
2023/08/16 02:20:24;;;;;;;11.10;2.78;;;29.80;99.90;;;;;;5044232;28;20167;-42
2023/08/16 02:22:50;;;;;;;9.80;2.40;;;29.80;99.90;;;;;;5043759;28;20053;-44
2023/08/16 02:25:17;;;;;;;16.33;4.90;;;29.80;99.90;;;;;;5043824;28;20076;-48
2023/08/16 02:27:43;;;;;;;6.95;2.70;;;29.70;99.90;;;;;;5043687;28;20025;-48
2023/08/16 02:30:10;;;;;;;36.97;5.55;;;29.40;99.90;;;;;;5044270;28;20105;-54
2023/08/16 02:32:37;;;;;;;13.52;3.45;;;29.30;99.90;;;;;;5040430;28;20049;-52
2023/08/16 02:35:06;;;;;;;19.40;3.40;;;29.30;99.90;;;;;;5036973;28;20068;-47
2023/08/16 02:37:33;;;;;;;15.23;3.00;;;29.30;99.90;;;;;;5041669;28;20044;-47
2023/08/16 02:39:59;;;;;;;13.23;3.38;;;29.40;99.90;;;;;;5042418;28;20025;-50
2023/08/16 02:42:26;;;;;;;12.20;3.42;;;29.40;99.90;;;;;;5043368;28;20025;-48
2023/08/16 02:44:53;;;;;;;9.35;2.70;;;29.50;99.90;;;;;;5025571;28;20033;-48
2023/08/16 02:47:19;;;;;;;9.25;2.97;;;29.50;99.90;;;;;;5043119;28;20079;-48
2023/08/16 02:49:49;;;;;;;13.05;2.92;;;29.50;99.90;;;;;;5043259;28;20306;-48
2023/08/16 02:52:15;;;;;;;9.85;2.65;;;29.50;99.90;;;;;;5043740;28;20030;-49
2023/08/16 02:54:42;;;;;;;11.60;2.78;;;29.60;99.90;;;;;;5042817;28;20040;-52
2023/08/16 02:57:09;;;;;;;10.02;3.05;;;29.60;99.90;;;;;;5027343;28;20030;-54
2023/08/16 02:59:46;;;;;;;8.80;3.40;;;29.70;99.90;;;;;;5045605;28;20022;-47
2023/08/16 03:02:16;;;;;;;9.23;2.83;;;29.70;99.90;;;;;;5044004;28;20029;-54
2023/08/16 03:04:43;;;;;;;10.82;2.40;;;29.60;99.90;;;;;;5047392;28;20075;-53
2023/08/16 03:07:11;;;;;;;9.05;2.58;;;29.60;99.90;;;;;;5047093;28;20204;-49
2023/08/16 03:09:39;;;;;;;7.43;2.67;;;29.60;99.90;;;;;;5046734;28;20068;-53
2023/08/16 03:12:06;;;;;;;9.05;2.88;;;29.60;99.90;;;;;;5045837;28;20022;-46
2023/08/16 03:14:33;;;;;;;9.18;2.75;;;29.50;99.90;;;;;;5046263;28;20034;-52
2023/08/16 03:17:00;;;;;;;12.88;2.47;;;29.50;99.90;;;;;;5046720;28;20058;-47
2023/08/16 03:19:27;;;;;;;9.20;2.63;;;29.50;99.90;;;;;;5047130;28;20436;-49
2023/08/16 03:21:56;;;;;;;9.70;2.38;;;29.60;99.90;;;;;;5046741;28;20022;-46
2023/08/16 03:24:22;;;;;;;8.88;2.70;;;29.60;99.90;;;;;;5045204;28;20022;-54
2023/08/16 03:26:51;;;;;;;5.65;2.08;;;29.60;99.90;;;;;;5046586;28;20033;-49
2023/08/16 03:29:19;;;;;;;8.65;3.53;;;;;;;;;;5046729;28;20029;-47
2023/08/16 03:31:47;;;;;;;8.30;3.42;;;;;;;;;;5046468;28;20041;-59
2023/08/16 03:34:16;;;;;;;7.13;2.90;;;;;;;;;;5046548;28;20096;-48
2023/08/16 03:37:28;;;;;;;7.90;3.47;;;;;;;;;;5046545;28;20028;-48
2023/08/16 03:39:55;;;;;;;8.50;4.57;;;;;;;;;;5046118;28;20045;-45
2023/08/16 03:42:22;;;;;;;13.65;5.15;;;;;;;;;;5046302;28;20177;-46
2023/08/16 03:44:48;;;;;;;9.65;4.53;;;;;;;;;;5047046;28;20025;-56
2023/08/16 03:47:15;;;;;;;9.20;3.63;;;;;;;;;;5046447;28;20033;-43
2023/08/16 03:49:46;;;;;;;7.22;3.60;;;;;;;;;;5046457;28;20030;-45
2023/08/16 03:52:13;;;;;;;8.20;3.83;;;;;;;;;;5045593;28;20059;-51
2023/08/16 03:54:40;;;;;;;9.50;2.92;;;;;;;;;;5045727;28;20041;-54
2023/08/16 03:57:07;;;;;;;8.55;3.10;;;;;;;;;;5046025;28;20084;-49
2023/08/16 03:59:33;;;;;;;6.05;3.10;;;;;;;;;;5046174;28;20021;-51
2023/08/16 04:02:00;;;;;;;11.43;3.00;;;;;;;;;;5046026;28;20066;-53
2023/08/16 04:04:26;;;;;;;7.95;2.78;;;;;;;;;;5046036;28;20053;-54
2023/08/16 04:06:53;;;;;;;4.43;2.28;;;;;;;;;;5045432;28;20071;-49
2023/08/16 04:09:20;;;;;;;9.27;3.00;;;29.50;99.90;;;;;;5045685;28;20037;-48
2023/08/16 04:11:46;;;;;;;7.95;2.60;;;29.50;99.90;;;;;;5045609;28;20079;-46
2023/08/16 04:14:13;;;;;;;5.93;2.40;;;29.40;99.90;;;;;;5045786;28;20206;-46
2023/08/16 04:16:39;;;;;;;12.57;3.47;;;29.50;99.90;;;;;;5045710;28;20092;-52
2023/08/16 04:19:06;;;;;;;6.80;2.42;;;29.40;99.90;;;;;;5045457;28;20092;-45
2023/08/16 04:21:33;;;;;;;9.73;2.78;;;29.30;99.90;;;;;;5045725;28;20013;-45
2023/08/16 04:23:59;;;;;;;6.78;2.58;;;29.30;99.90;;;;;;5045053;28;20025;-43
2023/08/16 04:26:26;;;;;;;8.82;2.72;;;29.10;99.90;;;;;;5045349;28;20097;-50
2023/08/16 04:28:52;;;;;;;7.30;2.42;;;29.00;99.90;;;;;;5045301;28;20017;-45
2023/08/16 04:31:19;;;;;;;9.45;2.70;;;29.00;99.90;;;;;;5045245;28;20102;-44
2023/08/16 04:33:46;;;;;;;10.43;3.13;;;;;;;;;;5044917;28;20029;-54
2023/08/16 04:36:14;;;;;;;7.40;2.70;;;;;;;;;;5041478;28;20053;-50
2023/08/16 04:38:49;;;;;;;11.77;2.53;;;;;;;;;;5044186;28;20043;-50
2023/08/16 04:41:16;;;;;;;9.50;2.70;;;;;;;;;;5045101;28;20034;-43
2023/08/16 04:43:43;;;;;;;10.38;2.92;;;;;;;;;;5045119;28;20028;-43
2023/08/16 04:46:09;;;;;;;12.18;3.30;;;;;;;;;;5044563;28;20034;-50
2023/08/16 04:48:36;;;;;;;9.07;2.83;;;;;;;;;;5045088;28;20088;-43
2023/08/16 04:51:03;;;;;;;12.40;3.25;;;;;;;;;;5045567;28;20336;-44
2023/08/16 04:53:29;;;;;;;11.98;3.28;;;;;;;;;;5044843;28;20060;-44
2023/08/16 04:55:56;;;;;;;19.17;3.80;;;;;;;;;;5044585;28;20040;-48
2023/08/16 04:58:22;;;;;;;31.60;3.95;;;;;;;;;;5044903;28;20306;-43
2023/08/16 05:00:49;;;;;;;31.35;4.43;;;;;;;;;;5045315;28;20253;-48
2023/08/16 05:03:16;;;;;;;20.88;4.35;;;;;;;;;;5044624;28;20083;-46
2023/08/16 05:05:42;;;;;;;21.42;3.75;;;;;;;;;;5045257;28;20028;-45
2023/08/16 05:08:09;;;;;;;14.07;3.40;;;;;;;;;;5044499;28;20033;-48
2023/08/16 05:10:36;;;;;;;26.73;4.07;;;;;;;;;;5042511;28;20032;-47
2023/08/16 05:13:02;;;;;;;16.83;3.67;;;;;;;;;;5044594;28;20041;-49
2023/08/16 05:15:29;;;;;;;11.77;3.35;;;;;;;;;;5044576;28;20029;-52
2023/08/16 05:17:56;;;;;;;9.55;2.60;;;;;;;;;;5043704;28;20026;-45
2023/08/16 05:20:22;;;;;;;10.13;2.65;;;;;;;;;;5043726;28;20041;-52
2023/08/16 05:22:49;;;;;;;7.20;2.30;;;;;;;;;;5044335;28;20195;-43
2023/08/16 05:25:16;;;;;;;9.02;2.85;;;;;;;;;;5044507;28;20305;-53
2023/08/16 05:27:42;;;;;;;11.57;2.70;;;;;;;;;;5044382;28;20079;-50
2023/08/16 05:30:09;;;;;;;7.93;2.63;;;;;;;;;;5044695;28;20045;-45
2023/08/16 05:32:36;;;;;;;7.18;2.15;;;;;;;;;;5044210;28;20029;-44
2023/08/16 05:35:02;;;;;;;5.50;2.40;;;;;;;;;;5043904;28;20046;-48
2023/08/16 05:37:29;;;;;;;8.48;2.50;;;;;;;;;;5044241;28;20230;-55
2023/08/16 05:39:56;;;;;;;11.68;3.15;;;;;;;;;;5044089;28;20377;-48
2023/08/16 05:42:22;;;;;;;11.45;2.92;;;;;;;;;;5043918;28;20081;-48
2023/08/16 05:44:49;;;;;;;14.50;2.72;;;;;;;;;;5043389;28;20033;-44
2023/08/16 05:47:16;;;;;;;8.70;2.55;;;;;;;;;;5026380;28;20221;-44
2023/08/16 05:49:42;;;;;;;9.77;2.50;;;;;;;;;;5044086;28;20033;-48
2023/08/16 05:52:09;;;;;;;10.40;2.65;;;;;;;;;;5044166;28;20037;-48
2023/08/16 05:54:36;;;;;;;7.32;2.50;;;;;;;;;;5042964;28;20222;-49
2023/08/16 05:57:03;;;;;;;7.28;2.20;;;;;;;;;;5043792;28;20025;-45
2023/08/16 05:59:29;;;;;;;8.68;2.85;;;;;;;;;;5043977;28;20187;-46
2023/08/16 06:01:56;;;;;;;6.25;2.00;;;;;;;;;;5043824;28;20029;-50
2023/08/16 06:04:22;;;;;;;14.30;2.92;;;;;;;;;;5043977;28;20174;-46
2023/08/16 06:07:14;;;;;;;7.82;2.13;;;;;;;;;;5043936;28;20024;-52
2023/08/16 06:12:57;;;;;;;7.00;2.30;;;;;;;;;;5043791;28;20029;-46
2023/08/16 06:15:23;;;;;;;8.23;2.08;;;;;;;;;;5044109;28;20041;-52
2023/08/16 06:17:50;;;;;;;15.35;2.72;;;;;;;;;;5043772;28;20025;-48
2023/08/16 06:20:17;;;;;;;12.40;2.58;;;;;;;;;;5043881;28;20068;-48
2023/08/16 06:22:43;;;;;;;11.00;2.63;;;;;;;;;;5043358;28;20029;-47
2023/08/16 06:25:10;;;;;;;9.68;2.75;;;;;;;;;;5044040;28;20044;-50
2023/08/16 06:27:37;;;;;;;7.93;2.40;;;;;;;;;;5043589;28;20080;-46
2023/08/16 06:30:04;;;;;;;8.27;2.67;;;;;;;;;;5044390;28;20035;-53
2023/08/16 06:32:30;;;;;;;8.52;2.42;;;;;;;;;;5047725;28;20029;-50
2023/08/16 06:34:57;;;;;;;6.97;2.30;;;;;;;;;;5047242;28;20407;-46
2023/08/16 06:37:24;;;;;;;8.32;2.45;;;;;;;;;;5047416;28;20056;-45
2023/08/16 06:39:50;;;;;;;6.85;2.55;;;;;;;;;;5047493;28;20040;-51
2023/08/16 06:42:17;;;;;;;11.90;2.90;;;;;;;;;;5047341;28;20027;-53
2023/08/16 06:44:44;;;;;;;10.02;2.53;;;;;;;;;;5047652;28;20033;-48
2023/08/16 06:47:11;;;;;;;10.05;2.63;;;;;;;;;;5047310;28;20018;-49
2023/08/16 06:49:37;;;;;;;8.77;2.45;;;;;;;;;;5046388;28;20187;-45
2023/08/16 06:52:04;;;;;;;10.02;2.97;;;;;;;;;;5047007;28;20356;-47
2023/08/16 06:54:32;;;;;;;8.02;2.70;;;;;;;;;;5047105;28;20363;-46
2023/08/16 06:56:59;;;;;;;10.65;2.97;;;;;;;;;;5046992;28;20081;-53
2023/08/16 06:59:26;;;;;;;8.52;2.92;;;;;;;;;;5047053;28;20102;-52
2023/08/16 07:01:52;;;;;;;11.38;2.80;;;;;;;;;;5047265;28;20055;-43
2023/08/16 07:04:19;;;;;;;9.57;2.90;;;;;;;;;;5047118;28;20033;-42
2023/08/16 07:06:46;;;;;;;8.18;2.80;;;;;;;;;;5046691;28;20325;-43
2023/08/16 07:09:12;;;;;;;9.95;2.85;;;;;;;;;;5046924;28;20036;-45
2023/08/16 07:11:39;;;;;;;12.43;2.67;;;;;;;;;;5046889;28;20332;-44
2023/08/16 07:14:06;;;;;;;11.93;3.22;;;;;;;;;;5046958;28;20336;-44
2023/08/16 07:16:33;;;;;;;12.85;3.08;;;;;;;;;;5046938;28;20024;-48
2023/08/16 07:19:00;;;;;;;10.27;2.97;;;;;;;;;;5046527;28;20025;-45
2023/08/16 07:21:27;;;;;;;11.20;2.90;;;;;;;;;;5046622;28;20040;-46
2023/08/16 07:23:53;;;;;;;10.80;3.13;;;;;;;;;;5046558;28;20125;-50
2023/08/16 07:26:20;;;;;;;7.97;2.72;;;;;;;;;;5046621;28;20017;-44
2023/08/16 07:28:47;;;;;;;8.07;2.42;;;;;;;;;;5046603;28;20033;-48
2023/08/16 07:31:13;;;;;;;9.10;2.67;;;;;;;;;;5046677;28;20021;-43
2023/08/16 07:33:41;;;;;;;7.22;2.60;;;;;;;;;;5046500;28;20394;-49
2023/08/16 07:36:08;;;;;;;9.27;2.72;;;;;;;;;;5046211;28;20057;-42
2023/08/16 07:38:34;;;;;;;9.57;2.40;;;;;;;;;;5045893;28;20025;-45
2023/08/16 07:41:01;;;;;;;8.75;2.40;;;;;;;;;;5046123;28;20201;-42
2023/08/16 07:43:31;;;;;;;8.93;2.22;;;;;;;;;;5046208;28;20104;-43
2023/08/16 07:45:57;;;;;;;7.72;2.28;;;;;;;;;;5046770;28;20021;-47
2023/08/16 07:48:24;;;;;;;8.25;2.53;;;;;;;;;;5046289;28;20025;-48
2023/08/16 07:50:51;;;;;;;9.32;2.88;;;;;;;;;;5046676;28;20075;-53
2023/08/16 07:53:17;;;;;;;8.93;2.42;;;;;;;;;;5045850;28;20044;-45
2023/08/16 07:55:44;;;;;;;5.78;2.25;;;;;;;;;;5046617;28;20056;-51
2023/08/16 07:58:13;;;;;;;6.43;2.15;;;;;;;;;;5045846;28;20038;-47
2023/08/16 08:00:40;;;;;;;7.68;2.50;;;;;;;;;;5046324;28;20028;-45
2023/08/16 08:03:08;;;;;;;8.63;2.75;;;;;;;;;;5046114;28;20224;-44
2023/08/16 08:05:35;;;;;;;6.57;2.13;;;;;;;;;;5046332;28;20105;-51
2023/08/16 08:08:01;;;;;;;7.95;2.45;;;;;;;;;;5045579;28;20021;-46
2023/08/16 08:10:31;;;;;;;7.75;2.88;;;;;;;;;;5046155;28;20028;-54
2023/08/16 08:12:58;;;;;;;9.43;3.10;;;;;;;;;;5045684;28;20065;-46
2023/08/16 08:15:25;;;;;;;11.00;3.50;;;;;;;;;;5045994;28;20032;-47
2023/08/16 08:17:52;;;;;;;10.48;3.35;;;;;;;;;;5044869;28;20017;-47
2023/08/16 08:20:19;;;;;;;11.82;3.65;;;;;;;;;;5045770;28;20033;-43
2023/08/16 08:22:45;;;;;;;14.27;3.88;;;;;;;;;;5045288;28;20021;-46
2023/08/16 08:25:12;;;;;;;16.02;4.05;;;;;;;;;;5027877;28;20032;-45
2023/08/16 08:27:39;;;;;;;15.70;4.55;;;;;;;;;;5045395;28;20332;-52
2023/08/16 08:30:07;;;;;;;17.65;4.85;;;;;;;;;;5045705;28;20064;-47
2023/08/16 08:32:33;;;;;;;16.02;4.30;;;;;;;;;;5045390;28;20025;-43
2023/08/16 08:35:00;;;;;;;18.00;4.93;;;;;;;;;;5045095;28;20113;-46
2023/08/16 08:37:27;;;;;;;15.15;4.75;;;;;;;;;;5045046;28;20025;-48
2023/08/16 08:39:54;;;;;;;12.63;4.50;;;;;;;;;;5045441;28;20037;-49
2023/08/16 08:42:21;;;;;;;13.95;4.13;;;;;;;;;;5045010;28;20380;-45
2023/08/16 08:44:48;;;;;;;18.70;4.95;;;;;;;;;;5045251;28;20088;-46
2023/08/16 08:47:15;;;;;;;17.42;5.45;;;;;;;;;;5044280;28;20032;-46
2023/08/16 08:49:42;;;;;;;16.20;4.88;;;;;;;;;;5045103;28;20061;-46
2023/08/16 08:52:10;;;;;;;17.98;4.93;;;;;;;;;;5044668;28;20375;-50
2023/08/16 08:54:36;;;;;;;17.20;4.70;;;;;;;;;;5044704;28;20029;-43
2023/08/16 08:57:04;;;;;;;22.40;5.47;;;;;;;;;;5044889;28;20041;-45
2023/08/16 08:59:33;;;;;;;19.08;5.43;;;;;;;;;;5045113;28;20079;-46
2023/08/16 09:02:00;;;;;;;17.73;5.47;;;;;;;;;;5044947;28;20013;-47
2023/08/16 09:04:29;;;;;;;17.80;5.38;;;;;;;;;;5044839;28;20034;-47
2023/08/16 09:06:56;;;;;;;17.75;5.18;;;;;;;;;;5044332;28;20023;-58
2023/08/16 09:09:23;;;;;;;21.63;5.30;;;;;;;;;;5044825;28;20079;-44
2023/08/16 09:11:50;;;;;;;16.58;5.57;;;;;;;;;;5044576;28;20130;-47
2023/08/16 09:14:16;;;;;;;17.45;5.88;;;;;;;;;;5044856;28;20242;-42
2023/08/16 09:16:43;;;;;;;16.10;5.25;;;;;;;;;;5044749;28;20039;-45
2023/08/16 09:19:14;;;;;;;16.75;5.30;;;;;;;;;;5044298;28;20186;-44
2023/08/16 09:21:41;;;;;;;18.40;4.90;;;;;;;;;;5044233;28;20064;-44
2023/08/16 09:24:08;;;;;;;20.00;5.60;;;;;;;;;;5044621;28;20030;-44
2023/08/16 09:26:36;;;;;;;15.63;4.80;;;;;;;;;;5044211;28;20026;-43
2023/08/16 09:29:03;;;;;;;16.98;5.10;;;;;;;;;;5044249;28;20029;-45
2023/08/16 09:31:30;;;;;;;15.75;4.70;;;;;;;;;;5044316;28;20352;-49
2023/08/16 09:34:01;;;;;;;19.40;4.78;;;;;;;;;;5044030;28;20036;-47
2023/08/16 09:36:29;;;;;;;18.23;4.63;;;;;;;;;;5043695;28;20069;-48
2023/08/16 09:39:13;;;;;;;17.58;4.50;;;;;;;;;;5043963;28;20060;-46
2023/08/16 09:41:49;;;;;;;15.00;4.50;;;;;;;;;;5044387;28;20029;-45
2023/08/16 09:44:16;;;;;;;16.67;4.00;;;;;;;;;;5044054;28;20274;-44
2023/08/16 09:46:43;;;;;;;13.68;3.75;;;;;;;;;;5044047;28;20233;-43
2023/08/16 09:49:10;;;;;;;9.57;3.53;;;;;;;;;;5044048;28;20097;-45
2023/08/16 09:51:42;;;;;;;10.18;3.75;;;;;;;;;;5043689;28;20115;-48
2023/08/16 09:54:12;;;;;;;16.25;3.60;;;;;;;;;;5044179;28;20029;-47
2023/08/16 09:56:39;;;;;;;15.50;3.20;;;;;;;;;;5044032;28;20021;-50
2023/08/16 09:59:09;;;;;;;11.93;3.30;;;;;;;;;;5043712;28;20039;-45
2023/08/16 10:01:36;;;;;;;10.38;3.20;;;;;;;;;;5043834;28;20029;-47
2023/08/16 10:04:03;;;;;;;11.75;3.33;;;;;;;;;;5043609;28;20344;-50
2023/08/16 10:06:33;;;;;;;12.13;3.35;;;;;;;;;;5042963;28;20052;-47
2023/08/16 10:09:02;;;;;;;10.25;3.33;;;;;;;;;;5043719;28;20372;-47
2023/08/16 10:11:28;;;;;;;10.88;3.13;;;;;;;;;;5043665;28;20036;-47
2023/08/16 10:13:55;;;;;;;11.07;3.20;;;;;;;;;;5043586;28;20043;-46
2023/08/16 10:16:22;;;;;;;14.32;3.80;;;;;;;;;;5043879;28;20033;-51
2023/08/16 10:18:52;;;;;;;12.43;3.33;;;;;;;;;;5043514;28;20025;-47
2023/08/16 10:21:19;;;;;;;8.90;2.78;;;;;;;;;;5043188;28;20152;-45
2023/08/16 10:23:48;;;;;;;11.00;3.35;;;;;;;;;;5043656;28;20092;-47
2023/08/16 10:26:15;;;;;;;9.70;2.95;;;;;;;;;;5043716;28;20076;-50
2023/08/16 10:28:52;;;;;;;23.25;3.70;;;;;;;;;;5043525;28;20057;-44
2023/08/16 10:31:21;;;;;;;13.10;3.38;;;;;;;;;;5043548;28;20033;-44
2023/08/16 10:33:49;;;;;;;13.98;3.45;;;;;;;;;;5043494;28;20037;-45
2023/08/16 10:36:17;;;;;;;11.05;3.15;;;;;;;;;;5042671;28;20052;-45
2023/08/16 10:38:44;;;;;;;12.15;3.42;;;;;;;;;;5043435;28;20041;-46
2023/08/16 10:41:14;;;;;;;9.18;3.10;;;;;;;;;;5042923;28;20280;-46
2023/08/16 10:43:48;;;;;;;9.45;3.28;;;;;;;;;;5043601;28;20324;-46
2023/08/16 10:46:25;;;;;;;11.63;3.70;;;;;;;;;;5043541;28;20333;-51
2023/08/16 10:48:56;;;;;;;12.45;3.90;;;;;;;;;;5043517;28;20035;-45
2023/08/16 10:51:23;;;;;;;8.77;3.43;;;;;;;;;;5043190;28;20206;-52
2023/08/16 10:53:50;;;;;;;10.82;3.42;;;;;;;;;;5042033;28;20036;-47
2023/08/16 10:56:19;;;;;;;12.60;3.65;;;;;;;;;;5043430;28;20025;-50
2023/08/16 10:58:52;;;;;;;10.90;3.65;;;;;;;;;;5043591;28;20321;-45
2023/08/16 11:01:33;;;;;;;10.88;3.67;;;;;;;;;;5043640;28;20033;-52
2023/08/16 11:04:00;;;;;;;12.82;3.75;;;;;;;;;;5043540;28;20096;-51
2023/08/16 11:06:27;;;;;;;9.13;3.53;;;;;;;;;;5042956;28;20017;-48
2023/08/16 11:08:54;;;;;;;11.80;3.58;;;;;;;;;;5043555;28;20312;-45
2023/08/16 11:11:22;;;;;;;11.95;4.03;;;;;;;;;;5043547;28;20097;-49
2023/08/16 11:13:48;;;;;;;10.13;3.53;;;;;;;;;;5042952;28;20063;-48
2023/08/16 11:16:15;;;;;;;10.70;3.50;;;;;;;;;;5044158;28;20029;-47
2023/08/16 11:18:42;;;;;;;11.50;3.60;;;;;;;;;;5046777;28;20030;-47
2023/08/16 11:21:11;;;;;;;12.88;3.80;;;;;;;;;;5046274;28;20249;-43
2023/08/16 11:23:39;;;;;;;10.73;3.42;;;;;;;;;;5046763;28;20017;-48
2023/08/16 11:26:07;;;;;;;14.43;3.63;;;;;;;;;;5047211;28;20025;-46
2023/08/16 11:28:35;;;;;;;13.77;4.10;;;;;;;;;;5046509;28;20064;-51
2023/08/16 11:31:02;;;;;;;9.82;3.65;;;;;;;;;;5047060;28;20132;-45
2023/08/16 11:33:32;;;;;;;11.90;3.70;;;;;;;;;;5046620;28;20037;-47
2023/08/16 11:36:04;;;;;;;10.65;3.85;;;;;;;;;;5046376;28;20051;-44
2023/08/16 11:38:30;;;;;;;12.80;3.33;;;;;;;;;;5046573;28;20249;-44
2023/08/16 11:40:58;;;;;;;15.73;4.22;;;;;;;;;;5046565;28;20029;-47
2023/08/16 11:43:31;;;;;;;13.07;3.65;;;;;;;;;;5046182;28;20022;-48
2023/08/16 11:45:58;;;;;;;11.88;2.83;;;;;;;;;;5046895;28;20033;-45
2023/08/16 11:48:25;;;;;;;10.95;3.13;;;;;;;;;;5046195;28;20095;-49
2023/08/16 11:50:52;;;;;;;9.93;3.20;;;;;;;;;;5046410;28;20025;-43
2023/08/16 11:53:19;;;;;;;10.70;3.30;;;;;;;;;;5046463;28;20037;-44
2023/08/16 11:56:07;;;;;;;11.10;2.88;;;;;;;;;;5046706;28;20037;-49
2023/08/16 11:58:46;;;;;;;8.50;3.20;;;;;;;;;;5046321;28;20033;-47
2023/08/16 12:01:17;;;;;;;9.38;2.95;;;;;;;;;;5045023;28;20040;-48
2023/08/16 12:03:47;;;;;;;11.50;2.80;;;;;;;;;;5045673;28;20022;-46
2023/08/16 12:06:16;;;;;;;9.30;2.97;;;;;;;;;;5046070;28;20237;-44
2023/08/16 12:08:49;;;;;;;16.52;3.13;;;;;;;;;;5045650;28;20033;-43
2023/08/16 12:11:26;;;;;;;7.05;2.80;;;;;;;;;;5045761;28;20071;-55
2023/08/16 12:13:53;;;;;;;7.53;1.92;;;;;;;;;;5045651;28;20053;-43
2023/08/16 12:16:20;;;;;;;5.68;2.20;;;;;;;;;;5046019;28;20096;-44
2023/08/16 12:18:50;;;;;;;45.78;6.55;;;;;;;;;;5045526;28;20206;-44
2023/08/16 12:21:16;;;;;;;24.30;4.20;;;;;;;;;;5045191;28;20033;-48
2023/08/16 12:23:43;;;;;;;19.05;3.50;;;;;;;;;;5045447;28;20028;-49
2023/08/16 12:26:10;;;;;;;10.98;2.28;;;;;;;;;;5045591;28;20049;-46
2023/08/16 12:28:36;;;;;;;12.82;2.33;;;;;;;;;;5044524;28;20025;-48
2023/08/16 12:31:04;;;;;;;9.23;2.20;;;;;;;;;;5045849;28;20183;-48
2023/08/16 12:33:31;;;;;;;7.70;1.80;;;;;;;;;;5045220;28;20036;-48
2023/08/16 12:35:58;;;;;;;7.22;1.80;;;;;;;;;;5045036;28;20064;-44
2023/08/16 12:38:25;;;;;;;13.63;1.80;;;;;;;;;;5045496;28;20033;-44
2023/08/16 12:40:51;;;;;;;7.10;1.60;;;;;;;;;;5045325;28;20245;-52
2023/08/16 12:43:21;;;;;;;8.43;1.65;;;;;;;;;;5045117;28;20067;-46
2023/08/16 12:45:48;;;;;;;7.35;1.80;;;;;;;;;;5045685;28;20209;-46
2023/08/16 12:48:16;;;;;;;5.00;1.50;;;;;;;;;;5044996;28;20253;-48
2023/08/16 12:50:42;;;;;;;4.53;1.60;;;;;;;;;;5045291;28;20021;-46
2023/08/16 12:53:09;;;;;;;6.63;1.17;;;;;;;;;;5045138;28;20021;-46
2023/08/16 12:55:36;;;;;;;4.82;1.48;;;;;;;;;;5045452;28;20040;-53
2023/08/16 12:58:02;;;;;;;4.65;1.30;;;;;;;;;;5044831;28;20018;-46
2023/08/16 13:00:29;;;;;;;5.78;1.50;;;;;;;;;;5045256;28;20041;-43
2023/08/16 13:02:57;;;;;;;7.20;1.63;;;;;;;;;;5044721;28;20088;-43
2023/08/16 13:05:27;;;;;;;7.70;1.90;;;;;;;;;;5045093;28;20017;-44
2023/08/16 13:07:55;;;;;;;11.23;1.73;;;;;;;;;;5044959;28;20221;-45
2023/08/16 13:10:22;;;;;;;4.88;1.70;;;;;;;;;;5045086;28;20033;-44
2023/08/16 13:12:51;;;;;;;4.90;2.00;;;;;;;;;;5044621;28;20021;-47
2023/08/16 13:15:17;;;;;;;7.13;1.70;;;;;;;;;;5045000;28;20037;-49
2023/08/16 13:17:44;;;;;;;6.15;1.60;;;;;;;;;;5044474;28;20091;-45
2023/08/16 13:20:11;;;;;;;5.68;1.60;;;;;;;;;;5044488;28;20071;-46
2023/08/16 13:22:37;;;;;;;8.65;2.70;;;;;;;;;;5044666;28;20041;-47
2023/08/16 13:25:06;;;;;;;7.95;2.72;;;;;;;;;;5044330;28;20059;-44
2023/08/16 13:27:32;;;;;;;12.82;2.65;;;;;;;;;;5043301;28;20013;-50
2023/08/16 13:29:59;;;;;;;4.38;1.85;;;;;;;;;;5044800;28;20294;-47
2023/08/16 13:32:26;;;;;;;6.22;1.95;;;;;;;;;;5044438;28;20349;-51
2023/08/16 13:34:52;;;;;;;15.18;1.80;;;;;;;;;;5040038;28;20053;-49
2023/08/16 13:37:19;;;;;;;10.27;2.20;;;;;;;;;;5043286;28;20034;-45
2023/08/16 13:39:46;;;;;;;3.53;1.55;;;;;;;;;;5042339;28;20037;-50
2023/08/16 13:42:12;;;;;;;6.07;2.13;;;;;;;;;;5039852;28;20041;-45
2023/08/16 13:44:41;;;;;;;3.80;1.67;;;;;;;;;;5044260;28;20201;-43
2023/08/16 13:47:08;;;;;;;5.75;1.90;;;;;;;;;;5038186;28;20029;-46
2023/08/16 13:49:35;;;;;;;5.65;1.65;;;;;;;;;;5030669;28;20030;-52
2023/08/16 13:52:03;;;;;;;7.63;1.60;;;;;;;;;;5024294;28;20030;-43
2023/08/16 13:54:29;;;;;;;4.30;1.50;;;;;;;;;;5034035;28;20104;-50
2023/08/16 13:56:56;;;;;;;6.05;1.60;;;;;;;;;;5034808;28;20392;-49
2023/08/16 13:59:22;;;;;;;4.03;1.10;;;;;;;;;;5040816;28;20063;-49
2023/08/16 14:01:49;;;;;;;3.63;1.58;;;;;;;;;;5036655;28;20018;-49
2023/08/16 14:04:16;;;;;;;4.20;1.50;;;;;;;;;;5043324;28;20090;-47
2023/08/16 14:06:43;;;;;;;2.72;1.40;;;;;;;;;;5042964;28;20030;-48
2023/08/16 14:09:09;;;;;;;4.93;1.65;;;;;;;;;;5043748;28;20025;-53
2023/08/16 14:11:36;;;;;;;6.00;1.67;;;;;;;;;;5042796;28;20124;-44
2023/08/16 14:14:03;;;;;;;4.13;1.70;;;;;;;;;;5043926;28;20045;-55
2023/08/16 14:16:29;;;;;;;3.83;1.50;;;;;;;;;;5038003;28;20076;-46
2023/08/16 14:18:57;;;;;;;6.45;1.50;;;;;;;;;;5042336;28;20036;-55